createdAt,value
2019-05-18T00:00:44.732Z,4.90
2019-05-18T00:03:16.284Z,4.85
2019-05-18T00:05:48.141Z,5.08
2019-05-18T00:08:19.702Z,4.72
2019-05-18T00:10:52.379Z,9.00
2019-05-18T00:13:24.234Z,5.80
2019-05-18T00:15:55.788Z,4.95
2019-05-18T00:18:27.445Z,5.40
2019-05-18T00:20:59.153Z,5.60
2019-05-18T00:23:30.751Z,6.05
2019-05-18T00:26:02.415Z,6.20
2019-05-18T00:28:35.600Z,6.03
2019-05-18T00:31:07.256Z,5.80
2019-05-18T00:33:38.805Z,6.25
2019-05-18T00:36:10.771Z,5.47
2019-05-18T00:38:42.423Z,5.72
2019-05-18T00:41:13.981Z,4.92
2019-05-18T00:43:45.539Z,5.37
2019-05-18T00:46:16.978Z,5.12
2019-05-18T00:48:48.533Z,5.25
2019-05-18T00:51:23.158Z,5.47
2019-05-18T00:53:53.788Z,4.97
2019-05-18T00:56:25.602Z,4.95
2019-05-18T00:58:57.104Z,4.95
2019-05-18T01:01:28.973Z,4.72
2019-05-18T01:04:00.619Z,4.47
2019-05-18T01:06:32.277Z,5.10
2019-05-18T01:09:05.271Z,4.67
2019-05-18T01:11:36.921Z,4.95
2019-05-18T01:14:08.605Z,5.10
2019-05-18T01:16:39.949Z,5.45
2019-05-18T01:19:11.492Z,4.83
2019-05-18T01:21:43.535Z,4.78
2019-05-18T01:24:15.088Z,4.80
2019-05-18T01:26:46.943Z,5.25
2019-05-18T01:29:18.606Z,5.28
2019-05-18T01:31:50.265Z,5.05
2019-05-18T01:34:21.922Z,5.03
2019-05-18T01:36:53.568Z,4.72
2019-05-18T01:39:24.940Z,5.37
2019-05-18T01:41:56.579Z,5.20
2019-05-18T01:44:28.135Z,4.90
2019-05-18T01:46:59.990Z,5.08
2019-05-18T01:49:31.750Z,5.60
2019-05-18T01:52:03.313Z,5.45
2019-05-18T01:54:34.754Z,5.00
2019-05-18T01:57:06.535Z,5.58
2019-05-18T01:59:38.161Z,5.00
2019-05-18T02:02:10.126Z,5.30
2019-05-18T02:04:41.981Z,5.17
2019-05-18T02:07:13.614Z,5.35
2019-05-18T02:09:45.090Z,4.83
2019-05-18T02:12:16.943Z,4.85
2019-05-18T02:14:48.604Z,5.42
2019-05-18T02:17:20.297Z,5.10
2019-05-18T02:19:51.582Z,4.97
2019-05-18T02:22:23.564Z,4.60
2019-05-18T02:24:55.119Z,4.97
2019-05-18T02:27:27.209Z,5.03
2019-05-18T02:29:58.980Z,5.80
2019-05-18T02:32:31.012Z,4.62
2019-05-18T02:35:02.982Z,4.78
2019-05-18T02:37:34.828Z,5.53
2019-05-18T02:40:07.108Z,5.28
2019-05-18T02:42:38.559Z,4.90
2019-05-18T02:45:10.314Z,4.50
2019-05-18T02:47:42.074Z,4.95
2019-05-18T02:50:13.608Z,5.00
2019-05-18T02:52:45.382Z,5.00
2019-05-18T02:55:17.035Z,4.95
2019-05-18T02:57:48.895Z,4.62
2019-05-18T03:00:20.459Z,4.85
2019-05-18T03:02:52.414Z,4.85
2019-05-18T03:05:24.072Z,4.90
2019-05-18T03:07:56.040Z,4.80
2019-05-18T03:10:27.641Z,5.00
2019-05-18T03:12:59.332Z,5.10
2019-05-18T03:15:30.844Z,4.92
2019-05-18T03:18:02.346Z,5.28
2019-05-18T03:20:34.308Z,5.42
2019-05-18T03:23:05.882Z,4.92
2019-05-18T03:25:37.307Z,5.20
2019-05-18T03:28:08.958Z,4.72
2019-05-18T03:30:40.732Z,4.50
2019-05-18T03:33:12.269Z,5.08
2019-05-18T03:35:43.984Z,4.03
2019-05-18T03:38:15.590Z,4.33
2019-05-18T03:40:47.136Z,5.30
2019-05-18T03:43:18.989Z,4.55
2019-05-18T03:45:50.861Z,4.87
2019-05-18T03:48:22.510Z,4.35
2019-05-18T03:50:53.958Z,5.03
2019-05-18T03:53:27.154Z,4.80
2019-05-18T03:55:58.911Z,4.75
2019-05-18T03:58:30.367Z,4.65
2019-05-18T04:01:02.340Z,5.25
2019-05-18T04:03:33.975Z,6.37
2019-05-18T04:06:05.690Z,4.47
2019-05-18T04:08:37.607Z,4.67
2019-05-18T04:11:09.461Z,5.22
2019-05-18T04:13:41.221Z,5.15
2019-05-18T04:16:12.978Z,4.65
2019-05-18T04:18:44.837Z,5.42
2019-05-18T04:21:16.392Z,5.08
2019-05-18T04:23:48.262Z,5.42
2019-05-18T04:26:19.792Z,4.60
2019-05-18T04:28:51.663Z,5.20
2019-05-18T04:31:23.110Z,5.00
2019-05-18T04:33:54.970Z,4.62
2019-05-18T04:36:26.932Z,4.95
2019-05-18T04:38:58.485Z,5.33
2019-05-18T04:41:30.973Z,5.12
2019-05-18T04:44:02.722Z,5.33
2019-05-18T04:46:34.580Z,5.00
2019-05-18T04:49:10.739Z,4.67
2019-05-18T04:51:42.411Z,14.07
2019-05-18T04:54:14.459Z,5.90
2019-05-18T04:56:45.803Z,5.42
2019-05-18T04:59:17.563Z,5.80
2019-05-18T05:01:56.415Z,4.65
2019-05-18T05:04:28.045Z,6.03
2019-05-18T05:06:59.497Z,5.03
2019-05-18T05:09:31.351Z,4.03
2019-05-18T05:12:04.349Z,5.22
2019-05-18T05:14:36.101Z,4.65
2019-05-18T05:17:07.455Z,3.92
2019-05-18T05:19:39.202Z,4.55
2019-05-18T05:22:11.074Z,3.85
2019-05-18T05:24:45.095Z,3.65
2019-05-18T05:27:19.301Z,4.33
2019-05-18T05:29:50.899Z,4.47
2019-05-18T05:32:22.602Z,4.12
2019-05-18T05:34:54.466Z,4.17
2019-05-18T05:37:45.470Z,4.10
2019-05-18T05:40:19.079Z,4.05
2019-05-18T05:42:50.722Z,3.75
2019-05-18T05:45:22.804Z,4.53
2019-05-18T05:47:54.780Z,3.92
2019-05-18T05:50:35.196Z,3.60
2019-05-18T05:53:00.419Z,4.12
2019-05-18T05:55:32.959Z,4.10
2019-05-18T05:58:04.446Z,4.35
2019-05-18T06:00:36.191Z,4.37
2019-05-18T06:03:08.498Z,3.98
2019-05-18T06:05:42.483Z,4.85
2019-05-18T06:08:17.045Z,4.25
2019-05-18T06:10:53.308Z,4.60
2019-05-18T06:13:25.825Z,4.35
2019-05-18T06:15:57.471Z,3.85
2019-05-18T06:18:29.079Z,4.47
2019-05-18T06:21:00.752Z,3.90
2019-05-18T06:23:32.731Z,3.87
2019-05-18T06:26:04.546Z,4.40
2019-05-18T06:28:36.398Z,4.00
2019-05-18T06:31:08.301Z,4.20
2019-05-18T06:33:39.740Z,3.98
2019-05-18T06:36:11.774Z,5.00
2019-05-18T06:38:43.594Z,4.58
2019-05-18T06:41:15.313Z,4.35
2019-05-18T06:43:46.753Z,4.47
2019-05-18T06:46:18.257Z,5.17
2019-05-18T06:48:49.896Z,5.17
2019-05-18T06:51:21.478Z,3.72
2019-05-18T06:54:11.268Z,4.62
2019-05-18T06:56:43.042Z,3.95
2019-05-18T07:01:48.238Z,3.90
2019-05-18T07:05:22.374Z,4.95
2019-05-18T07:07:53.841Z,5.30
2019-05-18T07:10:25.271Z,4.42
2019-05-18T07:12:57.111Z,4.10
2019-05-18T07:15:28.545Z,4.78
2019-05-18T07:18:01.974Z,4.62
2019-05-18T07:20:34.597Z,4.55
2019-05-18T07:23:06.494Z,3.80
2019-05-18T07:25:39.124Z,5.30
2019-05-18T07:28:10.996Z,4.62
2019-05-18T07:30:43.181Z,4.72
2019-05-18T07:33:17.168Z,3.72
2019-05-18T07:35:49.656Z,3.90
2019-05-18T07:38:21.187Z,4.12
2019-05-18T07:41:12.617Z,3.67
2019-05-18T07:43:44.517Z,4.12
2019-05-18T07:46:15.840Z,4.22
2019-05-18T07:48:53.472Z,3.80
2019-05-18T07:51:37.124Z,5.10
2019-05-18T07:54:07.333Z,3.80
2019-05-18T07:57:05.815Z,3.92
2019-05-18T07:59:42.044Z,3.75
2019-05-18T08:02:16.900Z,3.50
2019-05-18T08:05:08.231Z,3.47
2019-05-18T08:10:22.530Z,3.70
2019-05-18T08:13:06.578Z,3.52
2019-05-18T08:16:07.884Z,5.90
2019-05-18T08:18:46.599Z,3.62
2019-05-18T08:21:33.092Z,4.42
2019-05-18T08:24:17.367Z,4.95
2019-05-18T08:26:54.761Z,4.65
2019-05-18T08:29:35.335Z,6.35
2019-05-18T08:32:17.129Z,3.40
2019-05-18T08:38:04.885Z,4.12
2019-05-18T08:40:57.066Z,4.92
2019-05-18T08:43:34.640Z,3.80
2019-05-18T08:49:37.840Z,3.50
2019-05-18T08:52:14.124Z,3.87
2019-05-18T08:54:52.905Z,3.90
2019-05-18T08:57:53.126Z,4.60
2019-05-18T09:00:39.813Z,3.87
2019-05-18T09:03:22.762Z,3.15
2019-05-18T09:06:04.625Z,3.70
2019-05-18T09:08:51.044Z,4.08
2019-05-18T09:11:34.908Z,3.70
2019-05-18T09:17:11.968Z,3.62
2019-05-18T09:19:45.863Z,3.90
2019-05-18T09:22:25.136Z,4.37
2019-05-18T09:24:57.990Z,3.70
2019-05-18T09:27:36.733Z,3.00
2019-05-18T09:30:15.349Z,4.47
2019-05-18T09:32:56.419Z,4.20
2019-05-18T09:35:31.549Z,3.80
2019-05-18T09:38:07.739Z,5.12
2019-05-18T09:40:51.848Z,4.00
2019-05-18T09:43:31.008Z,4.90
2019-05-18T09:46:06.019Z,5.53
2019-05-18T09:49:16.152Z,3.83
2019-05-18T09:51:57.052Z,4.12
2019-05-18T09:54:35.680Z,5.78
2019-05-18T09:57:27.683Z,6.87
2019-05-18T10:00:24.793Z,4.17
2019-05-18T10:05:51.262Z,5.45
2019-05-18T10:08:50.940Z,5.17
2019-05-18T10:14:38.038Z,5.10
2019-05-18T10:17:34.752Z,5.03
2019-05-18T10:20:19.850Z,5.35
2019-05-18T10:23:12.476Z,4.30
2019-05-18T10:25:51.818Z,4.92
2019-05-18T10:28:26.837Z,4.78
2019-05-18T10:31:03.566Z,4.83
2019-05-18T10:33:53.767Z,5.42
2019-05-18T10:36:26.103Z,6.17
2019-05-18T10:39:03.930Z,5.00
2019-05-18T10:41:42.707Z,8.50
2019-05-18T10:44:19.337Z,6.12
2019-05-18T10:46:55.487Z,5.45
2019-05-18T10:49:32.588Z,4.30
2019-05-18T10:52:18.297Z,4.80
2019-05-18T10:54:54.544Z,4.53
2019-05-18T10:57:31.613Z,4.75
2019-05-18T11:00:17.886Z,4.50
2019-05-18T11:02:51.463Z,4.75
2019-05-18T11:05:24.855Z,4.30
2019-05-18T11:07:58.376Z,6.03
2019-05-18T11:10:37.655Z,4.08
2019-05-18T11:13:31.520Z,4.78
2019-05-18T11:16:31.848Z,5.80
2019-05-18T11:19:16.410Z,5.28
2019-05-18T11:22:04.806Z,4.22
2019-05-18T11:25:01.797Z,4.90
2019-05-18T15:10:16.185Z,5.25
2019-05-18T15:12:47.808Z,4.87
2019-05-18T15:15:24.201Z,4.67
2019-05-18T15:17:58.383Z,5.37
2019-05-18T15:20:33.758Z,5.12
2019-05-18T15:23:11.307Z,5.25
2019-05-18T15:25:51.198Z,5.67
2019-05-18T15:28:35.203Z,5.20
2019-05-18T15:31:26.188Z,5.03
2019-05-18T15:34:13.917Z,5.25
2019-05-18T15:37:04.911Z,5.35
2019-05-18T15:39:55.300Z,5.87
2019-05-18T15:42:49.188Z,5.28
2019-05-18T15:45:48.143Z,5.20
2019-05-18T15:48:40.630Z,5.40
2019-05-18T15:52:04.929Z,5.75
2019-05-18T15:54:57.922Z,6.45
2019-05-18T15:58:04.626Z,5.70
2019-05-18T16:00:47.994Z,6.10
2019-05-18T16:03:53.532Z,7.47
2019-05-18T16:06:38.330Z,7.40
2019-05-18T16:09:30.886Z,8.30
2019-05-18T16:12:03.083Z,8.08
2019-05-18T16:14:34.916Z,9.05
2019-05-18T16:17:06.580Z,6.75
2019-05-18T16:19:38.229Z,8.15
2019-05-18T16:22:15.626Z,6.15
2019-05-18T16:24:55.893Z,5.37
2019-05-18T16:27:42.946Z,5.30
2019-05-18T16:30:26.913Z,6.12
2019-05-18T16:33:15.235Z,7.92
2019-05-18T16:36:01.575Z,6.22
2019-05-18T16:39:00.936Z,6.83
2019-05-18T16:41:36.169Z,10.38
2019-05-18T16:44:19.105Z,6.17
2019-05-18T16:47:31.887Z,6.78
2019-05-18T16:50:10.767Z,6.83
2019-05-18T16:52:50.189Z,6.62
2019-05-18T16:55:37.881Z,5.10
2019-05-18T16:58:20.930Z,5.67
2019-05-18T17:00:56.258Z,6.03
2019-05-18T17:03:33.099Z,6.05
2019-05-18T17:06:11.815Z,5.80
2019-05-18T17:09:17.754Z,7.55
2019-05-18T17:12:01.893Z,8.08
2019-05-18T17:14:59.115Z,8.80
2019-05-18T17:17:37.414Z,9.65
2019-05-18T17:20:30.438Z,9.73
2019-05-18T17:25:53.319Z,9.78
2019-05-18T17:28:28.879Z,9.28
2019-05-18T17:31:03.945Z,9.73
2019-05-18T17:33:43.717Z,8.13
2019-05-18T17:36:30.749Z,8.78
2019-05-18T17:39:12.784Z,8.78
2019-05-18T17:41:51.434Z,9.03
2019-05-18T17:44:25.743Z,10.38
2019-05-18T17:47:02.336Z,12.10
2019-05-18T17:49:44.467Z,10.65
2019-05-18T17:52:27.937Z,11.30
2019-05-18T17:55:05.163Z,11.83
2019-05-18T17:57:50.045Z,11.33
2019-05-18T18:00:27.418Z,10.98
2019-05-18T18:03:12.542Z,9.45
2019-05-18T18:05:47.671Z,8.83
2019-05-18T18:08:22.304Z,9.20
2019-05-18T18:13:58.870Z,8.40
2019-05-18T18:16:34.577Z,9.38
2019-05-18T18:19:07.208Z,9.05
2019-05-18T18:21:43.490Z,9.05
2019-05-18T18:24:23.884Z,9.20
2019-05-18T18:26:58.991Z,8.83
2019-05-18T18:29:33.038Z,10.10
2019-05-18T18:34:40.332Z,12.30
2019-05-18T18:37:18.234Z,11.68
2019-05-18T18:39:54.521Z,11.60
2019-05-18T18:42:39.412Z,12.73
2019-05-18T18:45:14.416Z,9.95
2019-05-18T18:47:47.398Z,7.97
2019-05-18T18:50:21.280Z,6.73
2019-05-18T18:52:53.671Z,7.35
2019-05-18T18:55:28.577Z,7.92
2019-05-18T18:58:04.443Z,9.88
2019-05-18T19:00:41.419Z,10.18
2019-05-18T19:03:34.845Z,10.10
2019-05-18T19:06:07.357Z,9.55
2019-05-18T19:09:01.727Z,9.73
2019-05-18T19:11:41.755Z,10.93
2019-05-18T19:14:16.327Z,10.35
2019-05-18T19:17:08.231Z,10.95
2019-05-18T19:19:51.426Z,8.60
2019-05-18T19:22:28.867Z,9.50
2019-05-18T19:25:43.021Z,8.50
2019-05-18T19:28:15.319Z,8.00
2019-05-18T19:30:47.730Z,7.62
2019-05-18T19:33:19.369Z,7.53
2019-05-18T19:35:55.124Z,8.13
2019-05-18T19:38:27.779Z,7.58
2019-05-18T19:41:02.526Z,6.60
2019-05-18T19:43:34.411Z,7.30
2019-05-18T19:46:06.361Z,6.80
2019-05-18T19:48:38.127Z,6.60
2019-05-18T19:51:16.396Z,5.45
2019-05-18T19:53:50.848Z,5.45
2019-05-18T19:56:23.221Z,5.78
2019-05-18T19:58:54.785Z,5.67
2019-05-18T20:01:27.459Z,5.50
2019-05-18T20:03:59.734Z,4.70
2019-05-18T20:06:32.914Z,4.75
2019-05-18T20:09:25.250Z,4.90
2019-05-18T20:11:57.309Z,4.40
2019-05-18T20:14:29.118Z,4.35
2019-05-18T20:17:01.789Z,4.47
2019-05-18T20:19:39.064Z,4.95
2019-05-18T20:24:37.937Z,4.53
2019-05-18T20:27:09.827Z,5.05
2019-05-18T20:29:43.144Z,4.35
2019-05-18T20:32:14.846Z,4.62
2019-05-18T20:34:46.401Z,4.28
2019-05-18T20:37:24.115Z,4.08
2019-05-18T20:39:55.452Z,4.35
2019-05-18T20:42:28.271Z,4.90
2019-05-18T20:44:59.888Z,4.40
2019-05-18T20:47:31.966Z,4.20
2019-05-18T20:50:05.543Z,4.30
2019-05-18T20:52:38.738Z,3.95
2019-05-18T20:55:10.202Z,3.70
2019-05-18T20:57:43.995Z,4.03
2019-05-18T21:00:15.854Z,4.15
2019-05-18T21:02:47.712Z,5.00
2019-05-18T21:05:19.470Z,5.50
2019-05-18T21:07:51.442Z,4.60
2019-05-18T21:10:22.884Z,4.35
2019-05-18T21:12:54.947Z,4.30
2019-05-18T21:15:26.819Z,4.37
2019-05-18T21:17:59.183Z,3.72
2019-05-18T21:20:30.645Z,4.22
2019-05-18T21:23:02.192Z,5.00
2019-05-18T21:25:34.146Z,5.78
2019-05-18T21:28:07.545Z,5.20
2019-05-18T21:30:39.206Z,6.90
2019-05-18T21:33:11.061Z,7.37
2019-05-18T21:35:42.713Z,8.10
2019-05-18T21:38:14.677Z,7.87
2019-05-18T21:40:47.667Z,7.08
2019-05-18T21:43:19.527Z,6.35
2019-05-18T21:45:51.195Z,5.78
2019-05-18T21:48:22.827Z,5.10
2019-05-18T21:50:54.480Z,4.65
2019-05-18T21:53:26.955Z,3.90
2019-05-18T21:55:58.822Z,3.87
2019-05-18T21:58:30.475Z,3.92
2019-05-18T22:01:02.137Z,3.60
2019-05-18T22:03:34.115Z,3.40
2019-05-18T22:06:05.957Z,3.45
2019-05-18T22:08:37.810Z,4.28
2019-05-18T22:11:09.570Z,4.47
2019-05-18T22:13:43.479Z,5.60
2019-05-18T22:16:15.236Z,5.40
2019-05-18T22:18:47.608Z,6.00
2019-05-18T22:21:18.849Z,7.08
2019-05-18T22:23:50.615Z,6.70
2019-05-18T22:26:22.477Z,7.20
2019-05-18T22:28:54.442Z,6.10
2019-05-18T22:31:25.990Z,4.80
2019-05-18T22:33:57.959Z,4.47
2019-05-18T22:36:29.600Z,3.50
2019-05-18T22:39:07.195Z,3.70
2019-05-18T22:41:38.748Z,3.85
2019-05-18T22:44:10.604Z,3.60
2019-05-18T22:46:42.061Z,3.47
2019-05-18T22:49:14.021Z,3.92
2019-05-18T22:51:45.891Z,4.00
2019-05-18T22:54:17.741Z,3.62
2019-05-18T22:56:49.317Z,3.67
2019-05-18T22:59:20.961Z,3.47
2019-05-18T23:01:52.311Z,3.60
2019-05-18T23:04:23.860Z,3.25
2019-05-18T23:06:55.607Z,2.80
2019-05-18T23:09:27.069Z,3.27
2019-05-18T23:11:58.726Z,3.65
2019-05-18T23:14:30.383Z,3.25
2019-05-18T23:17:01.830Z,2.90
2019-05-18T23:19:33.996Z,2.98
2019-05-18T23:22:05.548Z,3.15
2019-05-18T23:24:37.095Z,3.40
2019-05-18T23:27:12.484Z,3.05
2019-05-18T23:29:44.092Z,3.08
2019-05-18T23:32:16.152Z,2.80
2019-05-18T23:34:48.116Z,3.25
2019-05-18T23:37:19.782Z,2.85
2019-05-18T23:39:53.685Z,2.92
2019-05-18T23:42:25.955Z,3.08
2019-05-18T23:44:58.738Z,3.60
2019-05-18T23:47:30.902Z,3.58
2019-05-18T23:50:02.866Z,3.50
2019-05-18T23:52:34.316Z,3.30
2019-05-18T23:55:06.897Z,3.50
2019-05-18T23:57:38.449Z,2.90
